Time;durP1;ratioP1;P1;durP2;ratioP2;P2;SDS_P1;SDS_P2;PMS_P1;PMS_P2;Temp;Humidity;BMP_temperature;BMP_pressure;BME280_temperature;BME280_humidity;BME280_pressure;Samples;Min_cycle;Max_cycle;Signal;HPM_P1;HPM_P2
2023/11/19 00:01:33;;;;;;;4.68;2.80;;;5.70;99.90;;;;;;5070096;28;20028;-53
2023/11/19 00:03:58;;;;;;;5.13;2.60;;;5.70;99.90;;;;;;5069724;28;20032;-53
2023/11/19 00:06:25;;;;;;;2.70;2.42;;;5.70;99.90;;;;;;5070605;28;20043;-54
2023/11/19 00:08:51;;;;;;;3.65;2.40;;;5.70;99.90;;;;;;5070607;28;20024;-53
2023/11/19 00:11:16;;;;;;;2.80;2.53;;;5.80;99.90;;;;;;5070513;28;20042;-53
2023/11/19 00:13:42;;;;;;;4.90;2.40;;;5.80;99.90;;;;;;5070556;28;20086;-53
2023/11/19 00:16:09;;;;;;;4.35;2.75;;;5.80;99.90;;;;;;5069761;28;20120;-53
2023/11/19 00:18:36;;;;;;;4.05;2.63;;;5.80;99.90;;;;;;5071133;28;20013;-53
2023/11/19 00:21:02;;;;;;;3.58;2.65;;;5.80;99.90;;;;;;5070399;28;20017;-53
2023/11/19 00:23:28;;;;;;;3.40;2.63;;;5.70;99.90;;;;;;5070447;28;20047;-52
2023/11/19 00:25:53;;;;;;;2.53;2.10;;;5.80;99.90;;;;;;5070129;28;20393;-52
2023/11/19 00:28:19;;;;;;;3.15;2.80;;;5.80;99.90;;;;;;5070482;28;20078;-52
2023/11/19 00:30:45;;;;;;;3.70;2.80;;;5.80;99.90;;;;;;5070601;28;20458;-52
2023/11/19 00:33:10;;;;;;;3.47;2.45;;;5.80;99.90;;;;;;5070485;28;20035;-52
2023/11/19 00:35:37;;;;;;;3.40;2.45;;;5.80;99.90;;;;;;5069992;28;20094;-53
2023/11/19 00:38:03;;;;;;;3.40;2.40;;;5.80;99.90;;;;;;5069680;28;20496;-53
2023/11/19 00:40:29;;;;;;;3.10;2.40;;;5.80;99.90;;;;;;5069906;28;20473;-53
2023/11/19 00:42:54;;;;;;;3.03;2.17;;;5.90;99.90;;;;;;5070230;28;20020;-53
2023/11/19 00:45:20;;;;;;;3.65;2.47;;;5.80;99.90;;;;;;5068798;28;20442;-52
2023/11/19 00:47:46;;;;;;;4.40;2.40;;;5.80;99.90;;;;;;5068358;28;20021;-53
2023/11/19 00:50:12;;;;;;;3.38;2.10;;;5.90;99.90;;;;;;5070789;28;20158;-52
2023/11/19 00:52:38;;;;;;;4.85;2.10;;;5.90;99.90;;;;;;5070139;28;20123;-52
2023/11/19 00:55:05;;;;;;;2.45;2.00;;;5.90;99.90;;;;;;5070065;28;20082;-52
2023/11/19 00:57:32;;;;;;;2.88;1.92;;;5.90;99.90;;;;;;5069770;28;20062;-52
2023/11/19 00:59:58;;;;;;;2.05;1.75;;;6.00;99.90;;;;;;5069852;28;20418;-53
2023/11/19 01:02:24;;;;;;;3.53;2.35;;;5.90;99.90;;;;;;5069863;28;20029;-52
2023/11/19 01:04:49;;;;;;;4.55;2.20;;;5.90;99.90;;;;;;5066778;28;20044;-52
2023/11/19 01:07:16;;;;;;;2.40;1.88;;;5.90;99.90;;;;;;5069520;28;20021;-52
2023/11/19 01:09:42;;;;;;;2.22;1.73;;;5.90;99.90;;;;;;5069648;28;20057;-53
2023/11/19 01:12:09;;;;;;;3.75;1.73;;;6.00;99.90;;;;;;5069816;28;20029;-53
2023/11/19 01:14:35;;;;;;;4.15;1.98;;;6.00;99.90;;;;;;5069719;28;20081;-52
2023/11/19 01:17:01;;;;;;;1.85;1.52;;;6.00;99.90;;;;;;5069040;28;20039;-52
2023/11/19 01:19:28;;;;;;;2.10;1.80;;;6.00;99.90;;;;;;5069741;28;20025;-52
2023/11/19 01:21:54;;;;;;;2.67;1.55;;;6.00;99.90;;;;;;5069516;28;20085;-52
2023/11/19 01:24:20;;;;;;;1.98;1.60;;;6.00;99.90;;;;;;5069884;28;20029;-53
2023/11/19 01:26:46;;;;;;;2.50;1.77;;;6.00;99.90;;;;;;5068873;28;20029;-53
2023/11/19 01:29:15;;;;;;;2.17;1.90;;;6.00;99.90;;;;;;5067901;28;20032;-52
2023/11/19 01:31:42;;;;;;;1.63;1.40;;;6.10;99.90;;;;;;5069206;28;20413;-54
2023/11/19 01:34:08;;;;;;;2.42;1.52;;;6.10;99.90;;;;;;5068995;28;20027;-53
2023/11/19 01:36:33;;;;;;;2.22;2.03;;;6.10;99.90;;;;;;5068417;28;20036;-52
2023/11/19 01:38:59;;;;;;;1.70;1.60;;;6.10;99.90;;;;;;5067302;28;20086;-52
2023/11/19 01:41:25;;;;;;;1.40;1.30;;;6.10;99.90;;;;;;5068937;28;20024;-53
2023/11/19 01:43:50;;;;;;;2.55;1.67;;;6.10;99.90;;;;;;5068773;28;20085;-53
2023/11/19 01:46:16;;;;;;;1.65;1.40;;;6.10;99.90;;;;;;5068471;28;20099;-53
2023/11/19 01:48:46;;;;;;;1.63;1.27;;;6.10;99.90;;;;;;5068521;28;20039;-53
2023/11/19 01:51:16;;;;;;;1.40;1.15;;;6.10;99.90;;;;;;5068752;28;20032;-52
2023/11/19 01:53:42;;;;;;;1.83;1.40;;;6.20;99.90;;;;;;5068591;28;20053;-52
2023/11/19 01:56:10;;;;;;;3.80;1.30;;;6.20;99.90;;;;;;5066484;28;20189;-53
2023/11/19 01:58:36;;;;;;;3.53;1.65;;;6.20;99.90;;;;;;5068581;28;20024;-53
2023/11/19 02:01:06;;;;;;;1.98;1.10;;;6.20;99.90;;;;;;5066783;28;20020;-53
2023/11/19 02:03:32;;;;;;;1.50;1.30;;;6.20;99.90;;;;;;5068358;28;20055;-53
2023/11/19 02:05:59;;;;;;;1.27;1.13;;;6.20;99.90;;;;;;5068080;28;20097;-53
2023/11/19 02:08:26;;;;;;;1.13;1.02;;;6.20;99.90;;;;;;5068332;28;20048;-53
2023/11/19 02:10:52;;;;;;;2.20;1.40;;;6.20;99.90;;;;;;5068155;28;20029;-52
2023/11/19 02:13:18;;;;;;;2.80;1.33;;;6.20;99.90;;;;;;5068076;28;20381;-53
2023/11/19 02:15:43;;;;;;;1.20;1.10;;;6.30;99.90;;;;;;5065879;28;20119;-53
2023/11/19 02:18:27;;;;;;;1.20;1.00;;;6.30;99.90;;;;;;5067797;28;20205;-53
2023/11/19 02:20:54;;;;;;;2.45;1.50;;;6.30;99.90;;;;;;5067371;28;20252;-53
2023/11/19 02:23:20;;;;;;;0.77;0.77;;;6.30;99.90;;;;;;5067892;28;20020;-52
2023/11/19 02:26:18;;;;;;;1.27;0.80;;;6.30;99.90;;;;;;5067840;28;20028;-52
2023/11/19 02:28:44;;;;;;;2.95;0.98;;;6.40;99.90;;;;;;5067950;28;20334;-53
2023/11/19 02:31:10;;;;;;;0.75;0.75;;;6.40;99.90;;;;;;5067968;28;20646;-53
2023/11/19 02:33:39;;;;;;;1.40;1.02;;;6.40;99.90;;;;;;5067928;28;20355;-53
2023/11/19 02:36:06;;;;;;;1.45;0.95;;;6.40;99.90;;;;;;5067880;28;20033;-53
2023/11/19 02:38:38;;;;;;;1.17;0.80;;;6.40;99.90;;;;;;5067952;28;20071;-52
2023/11/19 02:41:07;;;;;;;1.42;0.77;;;6.40;99.90;;;;;;5068114;28;20111;-52
2023/11/19 02:43:37;;;;;;;2.78;0.80;;;6.40;99.90;;;;;;5068216;28;20032;-52
2023/11/19 02:46:07;;;;;;;2.10;1.15;;;6.40;99.90;;;;;;5068000;28;20041;-52
2023/11/19 02:48:35;;;;;;;1.20;0.70;;;6.40;99.90;;;;;;5066661;28;20032;-52
2023/11/19 02:51:04;;;;;;;0.90;0.85;;;6.40;99.90;;;;;;5068240;28;20677;-54
2023/11/19 02:53:30;;;;;;;1.20;1.00;;;6.50;99.90;;;;;;5066496;28;20040;-53
2023/11/19 02:56:02;;;;;;;1.02;0.82;;;6.50;99.90;;;;;;5067469;28;20035;-52
2023/11/19 02:58:28;;;;;;;1.45;1.20;;;6.50;99.90;;;;;;5067804;28;20059;-53
2023/11/19 03:00:57;;;;;;;1.48;1.20;;;6.50;99.90;;;;;;5068007;28;20028;-53
2023/11/19 03:03:37;;;;;;;2.00;1.17;;;6.50;99.90;;;;;;5067771;28;20021;-53
2023/11/19 03:06:04;;;;;;;0.98;0.88;;;6.60;99.90;;;;;;5067370;28;20028;-53
2023/11/19 03:08:30;;;;;;;0.82;0.82;;;6.60;99.90;;;;;;5067558;28;20127;-53
2023/11/19 03:10:56;;;;;;;0.85;0.85;;;6.60;99.90;;;;;;5067443;28;20029;-53
2023/11/19 03:13:21;;;;;;;0.90;0.80;;;6.70;99.90;;;;;;5067530;28;20500;-53
2023/11/19 03:15:47;;;;;;;1.05;0.93;;;6.70;99.90;;;;;;5067122;28;20016;-52
2023/11/19 03:18:13;;;;;;;1.80;0.80;;;6.80;99.90;;;;;;5067506;28;20367;-53
2023/11/19 03:20:39;;;;;;;3.67;0.80;;;6.80;99.90;;;;;;5067736;28;20029;-53
2023/11/19 03:23:05;;;;;;;1.70;1.00;;;6.90;99.90;;;;;;5066253;28;20482;-53
2023/11/19 03:25:34;;;;;;;1.17;1.00;;;7.00;99.90;;;;;;5064071;28;20438;-54
2023/11/19 03:28:03;;;;;;;2.88;0.82;;;7.10;99.90;;;;;;5067965;28;20032;-54
2023/11/19 03:30:32;;;;;;;1.10;0.70;;;7.10;99.90;;;;;;5071182;28;20316;-54
2023/11/19 03:32:58;;;;;;;1.95;0.80;;;7.20;99.90;;;;;;5069810;28;20122;-54
2023/11/19 03:35:24;;;;;;;0.60;0.60;;;7.30;99.90;;;;;;5070779;28;20016;-54
2023/11/19 03:37:51;;;;;;;0.98;0.80;;;7.20;99.90;;;;;;5069798;28;20016;-52
2023/11/19 03:40:18;;;;;;;2.10;1.05;;;7.30;99.90;;;;;;5070900;28;20477;-52
2023/11/19 03:42:47;;;;;;;2.97;0.80;;;7.40;99.90;;;;;;5070648;28;20431;-52
2023/11/19 03:45:13;;;;;;;1.80;1.13;;;7.40;99.90;;;;;;5065142;28;20028;-51
2023/11/19 03:47:39;;;;;;;0.65;0.65;;;7.40;99.90;;;;;;5065741;28;20504;-51
2023/11/19 03:50:05;;;;;;;1.02;0.90;;;7.50;99.90;;;;;;5068481;28;20021;-51
2023/11/19 03:52:31;;;;;;;0.90;0.90;;;7.60;99.90;;;;;;5070794;28;20162;-50
2023/11/19 03:54:57;;;;;;;1.10;1.00;;;7.70;99.90;;;;;;5067728;28;20136;-50
2023/11/19 03:57:23;;;;;;;2.97;1.80;;;7.70;99.90;;;;;;5066356;28;20021;-50
2023/11/19 03:59:48;;;;;;;3.67;1.33;;;7.80;99.90;;;;;;5070459;28;20181;-51
2023/11/19 04:02:14;;;;;;;2.40;1.52;;;7.90;99.90;;;;;;5070378;28;20028;-52
2023/11/19 04:04:40;;;;;;;1.98;1.48;;;7.90;99.90;;;;;;5070793;28;20036;-51
2023/11/19 04:07:06;;;;;;;3.47;1.38;;;8.00;99.90;;;;;;5070226;28;20206;-51
2023/11/19 04:09:34;;;;;;;1.50;1.10;;;8.00;99.90;;;;;;5070843;28;20316;-51
2023/11/19 04:12:00;;;;;;;6.50;1.38;;;8.10;99.90;;;;;;5070646;28;20115;-52
2023/11/19 04:14:26;;;;;;;3.40;1.33;;;8.10;99.90;;;;;;5070971;28;20028;-52
2023/11/19 04:16:52;;;;;;;3.67;1.60;;;8.10;99.90;;;;;;5070471;28;20024;-50
2023/11/19 04:19:19;;;;;;;3.65;1.70;;;8.10;99.90;;;;;;5070855;28;20096;-52
2023/11/19 04:21:45;;;;;;;2.35;1.52;;;8.10;99.90;;;;;;5070464;28;20020;-51
2023/11/19 04:24:14;;;;;;;2.85;1.92;;;8.20;99.90;;;;;;5070510;28;20016;-51
2023/11/19 04:26:44;;;;;;;4.13;1.65;;;8.20;99.90;;;;;;5069734;28;20025;-51
2023/11/19 04:29:12;;;;;;;2.83;2.00;;;8.20;99.90;;;;;;5068995;28;20028;-52
2023/11/19 04:31:38;;;;;;;3.03;1.80;;;8.30;99.90;;;;;;5070526;28;20041;-52
2023/11/19 04:34:04;;;;;;;2.95;1.80;;;8.30;99.90;;;;;;5070295;28;20025;-52
2023/11/19 04:36:30;;;;;;;1.70;1.52;;;8.40;99.90;;;;;;5068663;28;20183;-50
2023/11/19 04:38:55;;;;;;;2.95;2.00;;;8.40;99.90;;;;;;5069754;28;20149;-52
2023/11/19 04:41:21;;;;;;;2.60;1.60;;;8.40;99.90;;;;;;5070027;28;20016;-51
2023/11/19 04:43:47;;;;;;;3.33;1.75;;;8.50;99.90;;;;;;5069945;28;20048;-52
2023/11/19 04:46:12;;;;;;;1.83;1.48;;;8.50;99.90;;;;;;5069646;28;20029;-51
2023/11/19 04:48:38;;;;;;;1.73;1.60;;;8.60;99.90;;;;;;5070091;28;20040;-51
2023/11/19 04:51:06;;;;;;;3.53;1.70;;;8.60;99.90;;;;;;5070413;28;20390;-51
2023/11/19 04:53:32;;;;;;;3.05;1.85;;;8.60;99.90;;;;;;5069039;28;20111;-51
2023/11/19 04:55:57;;;;;;;4.90;1.50;;;8.70;99.90;;;;;;5068512;28;20107;-51
2023/11/19 04:58:23;;;;;;;2.95;1.85;;;8.70;99.90;;;;;;5070035;28;20024;-51
2023/11/19 05:00:48;;;;;;;2.60;2.20;;;8.80;99.90;;;;;;5068442;28;20024;-52
2023/11/19 05:03:14;;;;;;;4.30;2.20;;;8.90;99.90;;;;;;5068458;28;20108;-51
2023/11/19 05:05:40;;;;;;;5.07;2.80;;;8.90;99.90;;;;;;5070145;28;20058;-52
2023/11/19 05:08:05;;;;;;;7.03;3.05;;;8.90;99.90;;;;;;5069509;28;20032;-51
2023/11/19 05:10:31;;;;;;;4.75;2.90;;;9.00;99.90;;;;;;5069545;28;20024;-53
2023/11/19 05:12:57;;;;;;;5.57;2.40;;;9.10;99.90;;;;;;5068971;28;20108;-53
2023/11/19 05:15:23;;;;;;;4.82;2.95;;;9.10;99.90;;;;;;5062477;28;20025;-53
2023/11/19 05:17:49;;;;;;;4.15;2.88;;;9.10;99.90;;;;;;5065185;28;20021;-54
2023/11/19 05:20:15;;;;;;;5.75;2.83;;;9.20;99.90;;;;;;5069152;28;20016;-53
2023/11/19 05:22:41;;;;;;;9.23;3.58;;;9.20;99.90;;;;;;5069106;28;20089;-54
2023/11/19 05:25:08;;;;;;;7.78;3.35;;;9.20;99.90;;;;;;5066152;28;20055;-51
2023/11/19 05:27:35;;;;;;;5.65;3.47;;;9.30;99.90;;;;;;5069442;28;20027;-52
2023/11/19 05:30:01;;;;;;;8.23;3.65;;;9.30;99.90;;;;;;5069150;28;20161;-51
2023/11/19 05:32:27;;;;;;;6.97;4.10;;;9.30;99.90;;;;;;5067787;28;20039;-52
2023/11/19 05:34:52;;;;;;;11.32;4.30;;;9.40;99.90;;;;;;5069110;28;20504;-51
2023/11/19 05:37:18;;;;;;;11.85;5.15;;;9.40;99.90;;;;;;5068620;28;20035;-52
2023/11/19 05:39:45;;;;;;;8.00;4.50;;;9.40;99.90;;;;;;5068976;28;20040;-51
2023/11/19 05:42:11;;;;;;;8.85;3.85;;;9.40;99.90;;;;;;5067681;28;20482;-51
2023/11/19 05:44:37;;;;;;;9.80;4.57;;;9.50;99.90;;;;;;5069490;28;20028;-52
2023/11/19 05:47:03;;;;;;;8.82;4.13;;;9.50;99.90;;;;;;5068942;28;20021;-51
2023/11/19 05:49:29;;;;;;;9.18;4.57;;;9.50;99.90;;;;;;5068871;28;20028;-53
2023/11/19 05:51:55;;;;;;;6.28;4.07;;;9.50;99.90;;;;;;5069007;28;20032;-52
2023/11/19 05:54:21;;;;;;;17.27;4.50;;;9.50;99.90;;;;;;5068826;28;20050;-50
2023/11/19 05:56:50;;;;;;;8.82;3.90;;;9.50;99.90;;;;;;5066767;28;20428;-51
2023/11/19 05:59:17;;;;;;;9.05;4.60;;;9.50;99.90;;;;;;5068701;28;20024;-51
2023/11/19 06:01:43;;;;;;;8.02;4.28;;;9.50;99.90;;;;;;5068417;28;20754;-50
2023/11/19 06:04:10;;;;;;;8.35;4.40;;;9.50;99.90;;;;;;5068302;28;20318;-50
2023/11/19 06:06:36;;;;;;;8.60;4.10;;;9.50;99.90;;;;;;5068181;28;20021;-50
2023/11/19 06:09:02;;;;;;;4.30;3.30;;;9.50;99.90;;;;;;5068225;28;20037;-50
2023/11/19 06:11:28;;;;;;;9.23;3.80;;;9.50;99.90;;;;;;5066846;28;20370;-50
2023/11/19 06:13:53;;;;;;;9.85;4.00;;;9.50;99.90;;;;;;5068381;28;20013;-50
2023/11/19 06:16:19;;;;;;;8.40;3.67;;;9.50;99.90;;;;;;5068084;28;20474;-51
2023/11/19 06:18:45;;;;;;;5.75;3.83;;;9.50;99.90;;;;;;5068288;28;20024;-50
2023/11/19 06:21:11;;;;;;;3.78;3.25;;;9.60;99.90;;;;;;5068285;28;20032;-50
2023/11/19 06:23:37;;;;;;;5.57;3.53;;;9.50;99.90;;;;;;5068335;28;20021;-51
2023/11/19 06:26:03;;;;;;;6.47;3.28;;;9.50;99.90;;;;;;5067896;28;20031;-50
2023/11/19 06:28:28;;;;;;;7.40;3.40;;;9.50;99.90;;;;;;5067968;28;20033;-51
2023/11/19 06:30:54;;;;;;;5.15;3.58;;;9.50;99.90;;;;;;5068061;28;20047;-50
2023/11/19 06:33:20;;;;;;;7.03;3.63;;;9.60;99.90;;;;;;5066500;28;20020;-51
2023/11/19 06:35:45;;;;;;;5.50;2.88;;;9.60;99.90;;;;;;5067806;28;20024;-51
2023/11/19 06:38:11;;;;;;;4.93;2.85;;;9.60;99.90;;;;;;5068128;28;20169;-51
2023/11/19 06:40:36;;;;;;;11.35;3.08;;;9.60;99.90;;;;;;5067187;28;20031;-51
2023/11/19 06:43:03;;;;;;;4.18;3.33;;;9.60;99.90;;;;;;5068661;28;20017;-51
2023/11/19 06:45:29;;;;;;;6.57;3.42;;;9.60;99.90;;;;;;5068065;28;20056;-48
2023/11/19 06:47:54;;;;;;;5.47;3.13;;;9.70;99.90;;;;;;5067738;28;20040;-50
2023/11/19 06:50:20;;;;;;;5.90;3.42;;;9.70;99.90;;;;;;5068088;28;20025;-48
2023/11/19 06:52:46;;;;;;;5.28;2.88;;;9.70;99.90;;;;;;5065428;28;20036;-49
2023/11/19 06:55:12;;;;;;;6.20;3.13;;;9.70;99.90;;;;;;5065503;28;20025;-50
2023/11/19 06:57:37;;;;;;;10.40;3.90;;;9.70;99.90;;;;;;5063608;28;20303;-50
2023/11/19 07:00:05;;;;;;;6.55;4.07;;;9.70;99.90;;;;;;5067335;28;20028;-50
2023/11/19 07:02:31;;;;;;;3.92;2.97;;;9.70;99.90;;;;;;5067714;28;20520;-50
2023/11/19 07:04:57;;;;;;;6.18;3.95;;;9.70;99.90;;;;;;5067269;28;20265;-51
2023/11/19 07:07:23;;;;;;;9.70;4.07;;;9.70;99.90;;;;;;5064035;28;20054;-51
2023/11/19 07:09:48;;;;;;;12.32;4.50;;;9.70;99.90;;;;;;5064406;28;20055;-52
2023/11/19 07:12:14;;;;;;;9.15;4.45;;;9.80;99.90;;;;;;5064361;28;20124;-50
2023/11/19 07:14:41;;;;;;;9.27;4.10;;;9.90;99.90;;;;;;5061761;28;20075;-49
2023/11/19 07:17:08;;;;;;;11.85;4.38;;;9.90;99.90;;;;;;5065379;28;20478;-48
2023/11/19 07:19:36;;;;;;;13.10;5.20;;;9.90;99.90;;;;;;5066957;28;20035;-49
2023/11/19 07:22:01;;;;;;;17.10;5.57;;;9.90;99.90;;;;;;5063525;28;20028;-50
2023/11/19 07:24:28;;;;;;;15.77;4.82;;;10.00;99.90;;;;;;5062546;28;20197;-51
2023/11/19 07:26:54;;;;;;;7.95;4.10;;;10.00;99.90;;;;;;5066860;28;20525;-51
2023/11/19 07:29:21;;;;;;;14.30;5.28;;;10.10;99.90;;;;;;5066986;28;20071;-51
2023/11/19 07:31:48;;;;;;;14.10;4.82;;;10.10;99.90;;;;;;5065458;28;20021;-50
2023/11/19 07:34:14;;;;;;;8.25;4.75;;;10.10;99.90;;;;;;5067236;28;20370;-50
2023/11/19 07:36:39;;;;;;;10.77;4.47;;;10.20;99.90;;;;;;5066671;28;20100;-48
2023/11/19 07:39:05;;;;;;;10.60;4.68;;;10.20;99.90;;;;;;5064051;28;20031;-49
2023/11/19 07:41:31;;;;;;;15.95;5.50;;;10.20;99.90;;;;;;5064163;28;20037;-51
2023/11/19 07:43:57;;;;;;;12.68;4.65;;;10.20;99.90;;;;;;5063086;28;20193;-50
2023/11/19 07:46:22;;;;;;;18.10;5.30;;;10.30;99.90;;;;;;5064292;28;20146;-49
2023/11/19 07:48:48;;;;;;;15.52;4.78;;;10.40;99.90;;;;;;5061343;28;20291;-50
2023/11/19 07:51:14;;;;;;;16.55;4.95;;;10.40;99.90;;;;;;5064960;28;20478;-50
2023/11/19 07:53:41;;;;;;;12.52;4.90;;;10.40;99.90;;;;;;5069591;28;20126;-50
2023/11/19 07:56:07;;;;;;;18.52;6.57;;;10.40;99.90;;;;;;5071944;28;20016;-50
2023/11/19 07:58:33;;;;;;;21.70;5.90;;;10.40;99.90;;;;;;5076568;28;20440;-50
2023/11/19 08:00:59;;;;;;;22.75;6.15;;;10.50;99.90;;;;;;5068114;28;20039;-49
2023/11/19 08:03:24;;;;;;;20.13;6.25;;;10.50;99.90;;;;;;5069578;28;20020;-48
2023/11/19 08:05:50;;;;;;;19.50;6.88;;;10.50;99.90;;;;;;5067105;28;20067;-50
2023/11/19 08:08:16;;;;;;;21.65;5.97;;;10.60;99.90;;;;;;5069564;28;20097;-50
2023/11/19 08:10:43;;;;;;;19.67;6.25;;;10.60;99.90;;;;;;5069147;28;20091;-49
2023/11/19 08:13:09;;;;;;;22.77;6.63;;;10.60;99.90;;;;;;5070752;28;20027;-50
2023/11/19 08:15:34;;;;;;;19.75;6.72;;;10.70;99.90;;;;;;5072755;28;20016;-47
2023/11/19 08:18:00;;;;;;;22.65;7.00;;;10.70;99.90;;;;;;5077040;28;20021;-47
2023/11/19 08:20:25;;;;;;;15.82;6.72;;;10.70;99.90;;;;;;5083176;28;20137;-50
2023/11/19 08:22:51;;;;;;;24.80;8.38;;;10.80;99.90;;;;;;5077975;28;20335;-49
2023/11/19 08:25:17;;;;;;;20.00;7.05;;;10.90;99.90;;;;;;5083107;28;20315;-50
2023/11/19 08:27:43;;;;;;;21.83;7.45;;;11.00;99.90;;;;;;5080611;28;20108;-49
2023/11/19 08:30:09;;;;;;;25.67;6.68;;;11.10;99.90;;;;;;5083598;28;20031;-51
2023/11/19 08:32:35;;;;;;;24.77;7.45;;;11.10;99.90;;;;;;5081237;28;20016;-48
2023/11/19 08:35:01;;;;;;;26.40;6.22;;;11.20;99.90;;;;;;5083899;28;20032;-47
2023/11/19 08:37:27;;;;;;;21.30;6.68;;;11.30;99.90;;;;;;5081854;28;20107;-50
2023/11/19 08:39:52;;;;;;;27.45;7.30;;;11.40;99.90;;;;;;5080457;28;20016;-48
2023/11/19 08:42:18;;;;;;;20.25;6.70;;;11.50;99.90;;;;;;5082588;28;20028;-50
2023/11/19 08:44:50;;;;;;;21.27;6.00;;;11.60;99.90;;;;;;5081217;28;20024;-51
2023/11/19 08:47:17;;;;;;;23.83;6.18;;;11.60;99.90;;;;;;5084613;28;20554;-50
2023/11/19 08:49:43;;;;;;;28.92;6.40;;;11.70;99.90;;;;;;5081120;28;20642;-51
2023/11/19 08:52:10;;;;;;;21.30;5.22;;;11.80;99.90;;;;;;5077648;28;20028;-50
2023/11/19 08:54:36;;;;;;;25.23;6.28;;;11.80;99.90;;;;;;5076114;28;20292;-49
2023/11/19 08:57:02;;;;;;;23.65;6.05;;;11.80;99.90;;;;;;5079941;28;20035;-51
2023/11/19 08:59:28;;;;;;;26.25;5.55;;;11.90;99.90;;;;;;5066857;28;20024;-51
2023/11/19 09:01:54;;;;;;;33.25;6.22;;;12.00;99.90;;;;;;5066913;28;20024;-50
2023/11/19 09:04:22;;;;;;;30.63;6.47;;;12.00;99.90;;;;;;5070636;28;20568;-48
2023/11/19 09:06:48;;;;;;;20.48;5.13;;;12.10;99.90;;;;;;5069067;28;20104;-51
2023/11/19 09:09:14;;;;;;;24.25;5.65;;;12.10;99.90;;;;;;5070165;28;20071;-51
2023/11/19 09:11:39;;;;;;;20.73;6.03;;;12.20;99.90;;;;;;5069957;28;20064;-51
2023/11/19 09:14:05;;;;;;;32.45;6.68;;;12.20;99.90;;;;;;5069405;28;20032;-52
2023/11/19 09:16:32;;;;;;;27.10;5.95;;;12.30;99.90;;;;;;5068969;28;20032;-51
2023/11/19 09:18:59;;;;;;;30.35;6.32;;;12.50;99.90;;;;;;5069334;28;20543;-52
2023/11/19 09:21:29;;;;;;;26.67;6.22;;;12.60;99.90;;;;;;5070012;28;20023;-51
2023/11/19 09:23:55;;;;;;;29.25;6.75;;;12.70;99.90;;;;;;5069499;28;20107;-50
2023/11/19 09:26:21;;;;;;;21.65;5.50;;;12.70;99.90;;;;;;5067766;28;20437;-50
2023/11/19 09:28:46;;;;;;;24.42;5.78;;;12.70;99.90;;;;;;5066792;28;20047;-52
2023/11/19 09:31:16;;;;;;;23.75;5.10;;;12.70;99.90;;;;;;5068597;28;20028;-51
2023/11/19 09:33:42;;;;;;;34.35;6.45;;;12.70;99.90;;;;;;5068909;28;20029;-50
2023/11/19 09:36:08;;;;;;;27.42;6.35;;;12.70;99.90;;;;;;5068442;28;20031;-52
2023/11/19 09:38:37;;;;;;;32.17;6.57;;;12.70;99.90;;;;;;5067482;28;20020;-51
2023/11/19 09:41:08;;;;;;;28.95;5.95;;;12.70;99.90;;;;;;5068961;28;20013;-51
2023/11/19 09:43:35;;;;;;;24.20;6.05;;;12.70;99.90;;;;;;5068952;28;20031;-52
2023/11/19 09:46:06;;;;;;;30.75;6.03;;;12.80;99.90;;;;;;5066950;28;20465;-51
2023/11/19 09:48:34;;;;;;;30.65;6.75;;;12.80;99.90;;;;;;5068834;28;20144;-50
2023/11/19 09:51:01;;;;;;;25.17;7.55;;;12.80;99.90;;;;;;5069076;28;20024;-50
2023/11/19 09:53:26;;;;;;;29.65;6.93;;;12.90;99.90;;;;;;5069129;28;20038;-51
2023/11/19 09:55:53;;;;;;;34.10;6.70;;;12.90;99.90;;;;;;5068304;28;20024;-51
2023/11/19 09:58:19;;;;;;;31.88;6.82;;;13.00;99.90;;;;;;5067252;28;20385;-48
2023/11/19 10:00:44;;;;;;;34.92;7.47;;;13.20;99.90;;;;;;5067263;28;20145;-53
2023/11/19 10:03:12;;;;;;;32.30;6.65;;;13.30;99.90;;;;;;5068620;28;20096;-53
2023/11/19 10:05:38;;;;;;;25.73;6.10;;;13.40;99.90;;;;;;5068448;28;20021;-53
2023/11/19 10:08:05;;;;;;;23.70;6.32;;;13.50;99.90;;;;;;5067509;28;20025;-54
2023/11/19 10:10:30;;;;;;;30.25;6.88;;;14.10;99.90;;;;;;5067793;28;20024;-53
2023/11/19 10:12:56;;;;;;;26.75;6.40;;;14.30;99.90;;;;;;5066751;28;20501;-53
2023/11/19 10:15:24;;;;;;;30.90;5.75;;;14.40;99.90;;;;;;5062585;28;20059;-53
2023/11/19 10:17:56;;;;;;;32.63;6.68;;;14.50;99.90;;;;;;5064865;28;20095;-53
2023/11/19 10:20:22;;;;;;;27.08;5.20;;;14.50;99.90;;;;;;5067684;28;20540;-54
2023/11/19 10:22:47;;;;;;;26.25;6.30;;;14.30;99.90;;;;;;5068209;28;20059;-53
2023/11/19 10:25:27;;;;;;;29.40;5.93;;;14.30;99.90;;;;;;5067859;28;20101;-53
2023/11/19 10:27:53;;;;;;;23.88;5.50;;;14.80;99.90;;;;;;5067214;28;20559;-54
2023/11/19 10:30:24;;;;;;;30.38;5.93;;;15.40;99.90;;;;;;5067846;28;20413;-54
2023/11/19 10:33:09;;;;;;;23.13;5.85;;;15.30;99.90;;;;;;5068368;28;20140;-54
2023/11/19 10:35:36;;;;;;;26.88;6.32;;;15.50;99.90;;;;;;5065249;28;20021;-53
2023/11/19 10:38:15;;;;;;;30.40;7.78;;;15.30;99.90;;;;;;5067583;28;20093;-54
2023/11/19 10:40:41;;;;;;;22.90;6.05;;;15.40;99.90;;;;;;5067181;28;20021;-54
2023/11/19 10:43:08;;;;;;;22.98;5.40;;;15.30;99.90;;;;;;5067981;28;20066;-53
2023/11/19 10:45:34;;;;;;;23.23;6.47;;;15.40;99.90;;;;;;5065326;28;20097;-54
2023/11/19 10:48:01;;;;;;;24.92;6.35;;;15.80;99.90;;;;;;5063882;28;20033;-53
2023/11/19 10:50:27;;;;;;;21.40;5.40;;;16.70;99.90;;;;;;5064307;28;20024;-54
2023/11/19 10:52:58;;;;;;;27.70;6.85;;;17.30;99.90;;;;;;5066454;28;20023;-54
2023/11/19 10:55:27;;;;;;;19.30;5.90;;;18.10;99.90;;;;;;5065383;28;20182;-54
2023/11/19 10:57:58;;;;;;;23.35;5.20;;;18.10;99.90;;;;;;5067120;28;20223;-53
2023/11/19 11:00:25;;;;;;;23.75;5.95;;;17.60;99.90;;;;;;5066120;28;20474;-53
2023/11/19 11:02:55;;;;;;;17.00;5.63;;;17.10;99.90;;;;;;5064460;28;20538;-53
2023/11/19 11:05:22;;;;;;;24.35;6.47;;;16.80;99.90;;;;;;5062052;28;20012;-54
2023/11/19 11:07:50;;;;;;;26.33;6.65;;;16.20;99.90;;;;;;5067077;28;20056;-54
2023/11/19 11:10:18;;;;;;;32.17;6.75;;;15.60;99.90;;;;;;5067865;28;20020;-54
2023/11/19 11:12:43;;;;;;;23.50;5.95;;;15.20;99.90;;;;;;5068005;28;20449;-53
2023/11/19 11:15:15;;;;;;;28.35;6.95;;;15.10;99.90;;;;;;5066190;28;20025;-53
2023/11/19 11:17:43;;;;;;;27.65;6.95;;;14.80;99.90;;;;;;5067950;28;20016;-54
2023/11/19 11:20:09;;;;;;;27.60;6.18;;;14.60;99.90;;;;;;5067948;28;20089;-54
2023/11/19 11:23:01;;;;;;;17.23;4.63;;;14.60;99.90;;;;;;5067753;28;20103;-54
2023/11/19 11:25:42;;;;;;;24.83;5.72;;;14.50;99.90;;;;;;5067537;28;20021;-54
2023/11/19 11:28:21;;;;;;;27.65;6.55;;;14.40;99.90;;;;;;5067551;28;20021;-54
2023/11/19 11:31:11;;;;;;;25.50;5.38;;;14.20;99.90;;;;;;5067709;28;20052;-54
2023/11/19 11:34:16;;;;;;;30.73;6.97;;;14.00;99.90;;;;;;5067646;28;20021;-54
2023/11/19 11:37:16;;;;;;;27.95;5.95;;;13.90;99.90;;;;;;5063486;28;20107;-54
2023/11/19 11:39:42;;;;;;;;;;;13.80;99.90;;;;;;5064428;28;20338;-54
2023/11/19 11:42:25;;;;;;;28.52;6.18;;;13.70;99.90;;;;;;5067260;28;19915;-54
2023/11/19 11:45:00;;;;;;;36.47;5.90;;;13.70;99.90;;;;;;5067502;28;20104;-54
2023/11/19 11:47:46;;;;;;;30.60;6.13;;;13.70;99.90;;;;;;5067098;28;20033;-54
2023/11/19 11:50:16;;;;;;;28.40;5.88;;;13.70;99.90;;;;;;5069906;28;20071;-53
2023/11/19 11:53:05;;;;;;;33.40;5.57;;;13.90;99.90;;;;;;5070299;28;20028;-54
2023/11/19 11:55:54;;;;;;;20.77;5.50;;;14.00;99.90;;;;;;5062389;28;20033;-53
2023/11/19 11:58:31;;;;;;;28.80;5.50;;;13.90;99.90;;;;;;5070892;28;20031;-53
2023/11/19 12:00:59;;;;;;;32.78;6.45;;;13.90;99.90;;;;;;5070757;28;20016;-53
2023/11/19 12:03:28;;;;;;;25.05;5.50;;;13.80;99.90;;;;;;5069844;28;20592;-53
2023/11/19 12:05:54;;;;;;;18.80;4.93;;;13.70;99.90;;;;;;5071573;28;20029;-53
2023/11/19 12:08:24;;;;;;;22.00;5.30;;;13.60;99.90;;;;;;5069958;28;20028;-53
2023/11/19 12:10:51;;;;;;;;;;;13.60;99.90;;;;;;5069108;28;20036;-53
2023/11/19 12:13:26;;;;;;;21.35;4.35;;;13.60;99.90;;;;;;5070841;28;19916;-53
2023/11/19 12:15:58;;;;;;;28.50;6.35;;;13.50;99.90;;;;;;5069793;28;20021;-53
2023/11/19 12:18:25;;;;;;;23.70;5.28;;;13.50;99.90;;;;;;5067957;28;20021;-53
2023/11/19 12:20:51;;;;;;;21.95;5.75;;;13.40;99.90;;;;;;5070374;28;20016;-53
2023/11/19 12:23:17;;;;;;;25.92;6.55;;;13.50;99.90;;;;;;5068873;28;20020;-53
2023/11/19 12:25:45;;;;;;;17.80;4.88;;;13.40;99.90;;;;;;5070024;28;20394;-54
2023/11/19 12:28:17;;;;;;;31.70;6.05;;;13.30;99.90;;;;;;5069479;28;20024;-53
2023/11/19 12:30:43;;;;;;;27.23;6.15;;;13.30;99.90;;;;;;5067876;28;20111;-52
2023/11/19 12:33:10;;;;;;;24.63;5.78;;;13.30;99.90;;;;;;5069860;28;20121;-53
2023/11/19 12:35:43;;;;;;;29.27;5.97;;;13.40;99.90;;;;;;5069695;28;20055;-53
2023/11/19 12:38:23;;;;;;;33.42;5.90;;;13.40;99.90;;;;;;5067368;28;20108;-53
2023/11/19 12:41:10;;;;;;;27.30;6.13;;;13.30;99.90;;;;;;5066265;28;20072;-52
2023/11/19 12:43:37;;;;;;;22.73;5.68;;;13.20;99.90;;;;;;5068316;28;20024;-55
2023/11/19 12:46:23;;;;;;;26.83;5.80;;;13.20;99.90;;;;;;5069077;28;20443;-53
2023/11/19 12:48:50;;;;;;;24.85;5.60;;;13.20;99.90;;;;;;5066143;28;20581;-53
2023/11/19 12:51:15;;;;;;;33.40;6.28;;;13.20;99.90;;;;;;5067822;28;20375;-53